createdAt,value
2022-11-05T00:01:52.349Z,97832.17
2022-11-05T00:04:41.649Z,97835.95
2022-11-05T00:07:36.264Z,97840.42
2022-11-05T00:10:19.813Z,97842.02
2022-11-05T00:13:05.619Z,97845.77
2022-11-05T00:15:55.266Z,97850.27
2022-11-05T00:18:27.105Z,97851.94
2022-11-05T00:20:59.869Z,97848.39
2022-11-05T00:23:49.568Z,97844.75
2022-11-05T00:26:21.163Z,97860.05
2022-11-05T00:28:52.886Z,97866.23
2022-11-05T00:31:24.856Z,97870.36
2022-11-05T00:33:56.527Z,97876.39
2022-11-05T00:36:28.274Z,97876.21
2022-11-05T00:38:59.954Z,97873.33
2022-11-05T00:41:31.670Z,97880.16
2022-11-05T00:44:21.149Z,97879.39
2022-11-05T00:47:13.697Z,97882.63
2022-11-05T00:49:45.336Z,97882.75
2022-11-05T00:52:34.642Z,97880.80
2022-11-05T00:55:07.528Z,97880.92
2022-11-05T00:57:39.385Z,97886.00
2022-11-05T01:00:13.777Z,97886.59
2022-11-05T01:02:45.690Z,97895.63
2022-11-05T01:05:18.045Z,97891.81
2022-11-05T01:07:49.693Z,97886.91
2022-11-05T01:10:21.753Z,97878.84
2022-11-05T01:12:53.578Z,97881.86
2022-11-05T01:15:25.852Z,97876.02
2022-11-05T01:17:57.568Z,97885.78
2022-11-05T01:20:29.350Z,97887.30
2022-11-05T01:23:01.780Z,97897.38
2022-11-05T01:25:33.569Z,97897.68
2022-11-05T01:28:05.554Z,97901.23
2022-11-05T01:30:38.021Z,97905.29
2022-11-05T01:33:10.147Z,97904.79
2022-11-05T01:35:42.975Z,97903.42
2022-11-05T01:38:14.681Z,97906.66
2022-11-05T01:40:47.122Z,97911.25
2022-11-05T01:43:20.464Z,97916.61
2022-11-05T01:45:56.639Z,97920.31
2022-11-05T01:48:33.178Z,97926.35
2022-11-05T01:51:09.744Z,97933.30
2022-11-05T01:53:46.046Z,97933.67
2022-11-05T01:56:23.454Z,97937.04
2022-11-05T01:59:01.214Z,97942.64
2022-11-05T02:01:33.192Z,97945.66
2022-11-05T02:04:13.386Z,97947.02
2022-11-05T02:06:47.202Z,97959.42
2022-11-05T02:09:21.144Z,97956.28
2022-11-05T02:11:53.643Z,97955.86
2022-11-05T02:14:26.022Z,97959.66
2022-11-05T02:17:05.001Z,97968.66
2022-11-05T02:20:09.486Z,97972.89
2022-11-05T02:23:19.453Z,97977.59
2022-11-05T02:26:19.553Z,97975.55
2022-11-05T02:29:21.996Z,97984.53
2022-11-05T02:32:03.056Z,97991.71
2022-11-05T02:34:43.599Z,97987.33
2022-11-05T02:37:25.404Z,97985.48
2022-11-05T02:40:06.517Z,97990.95
2022-11-05T02:42:46.453Z,97993.77
2022-11-05T02:45:32.138Z,98000.63
2022-11-05T02:48:12.771Z,98006.92
2022-11-05T02:50:52.364Z,98006.05
2022-11-05T02:53:34.593Z,97999.95
2022-11-05T02:56:11.222Z,98001.67
2022-11-05T02:58:46.909Z,98010.56
2022-11-05T03:01:18.946Z,98015.48
2022-11-05T03:03:54.205Z,98016.38
2022-11-05T03:06:54.481Z,98025.80
2022-11-05T03:09:47.789Z,98017.33
2022-11-05T03:12:28.222Z,98026.16
2022-11-05T03:15:10.141Z,98034.11
2022-11-05T03:17:54.078Z,98032.12
2022-11-05T03:20:32.556Z,98034.60
2022-11-05T03:23:10.843Z,98042.00
2022-11-05T03:25:48.218Z,98039.41
2022-11-05T03:28:24.111Z,98041.06
2022-11-05T03:30:58.891Z,98045.67
2022-11-05T03:33:34.538Z,98053.11
2022-11-05T03:36:14.231Z,98051.44
2022-11-05T03:38:50.025Z,98051.29
2022-11-05T03:41:24.105Z,98046.48
2022-11-05T03:44:00.137Z,98048.80
2022-11-05T03:46:37.086Z,98050.27
2022-11-05T03:49:12.750Z,98062.61
2022-11-05T03:51:48.910Z,98063.80
2022-11-05T03:54:20.810Z,98069.09
2022-11-05T03:57:02.421Z,98070.20
2022-11-05T03:59:40.754Z,98070.66
2022-11-05T04:02:15.021Z,98063.55
2022-11-05T04:04:47.657Z,98066.02
2022-11-05T04:07:37.632Z,98070.63
2022-11-05T04:10:27.965Z,98082.89
2022-11-05T04:13:17.197Z,98088.20
2022-11-05T04:16:07.107Z,98092.46
2022-11-05T04:18:39.486Z,98094.17
2022-11-05T04:21:29.953Z,98091.40
2022-11-05T04:24:10.875Z,98089.90
2022-11-05T04:26:45.389Z,98090.77
2022-11-05T04:29:34.745Z,98088.54
2022-11-05T04:32:06.849Z,98087.81
2022-11-05T04:34:38.596Z,98093.99
2022-11-05T04:37:10.194Z,98094.91
2022-11-05T04:39:42.008Z,98091.65
2022-11-05T04:42:13.706Z,98090.53
2022-11-05T04:44:45.433Z,98095.48
2022-11-05T04:47:17.246Z,98095.09
2022-11-05T04:49:49.002Z,98099.11
2022-11-05T04:52:20.602Z,98102.88
2022-11-05T04:54:52.252Z,98107.13
2022-11-05T04:57:24.002Z,98108.86
2022-11-05T04:59:56.146Z,98105.56
2022-11-05T05:02:28.100Z,98100.21
2022-11-05T05:04:59.766Z,98106.93
2022-11-05T05:07:31.586Z,98105.04
2022-11-05T05:10:05.321Z,98111.14
2022-11-05T05:12:37.728Z,98112.35
2022-11-05T05:15:10.664Z,98115.50
2022-11-05T05:17:42.434Z,98118.69
2022-11-05T05:20:33.141Z,98117.95
2022-11-05T05:23:05.432Z,98128.25
2022-11-05T05:25:37.110Z,98130.48
2022-11-05T05:28:08.843Z,98136.58
2022-11-05T05:30:40.445Z,98142.73
2022-11-05T05:33:12.485Z,98143.03
2022-11-05T05:35:44.403Z,98139.13
2022-11-05T05:38:16.099Z,98136.40
2022-11-05T05:40:47.879Z,98131.58
2022-11-05T05:43:21.999Z,98133.41
2022-11-05T05:45:53.675Z,98143.61
2022-11-05T05:48:25.733Z,98159.71
2022-11-05T05:51:00.337Z,98161.56
2022-11-05T05:53:33.208Z,98160.11
2022-11-05T05:56:05.369Z,98161.98
2022-11-05T05:58:40.278Z,98167.21
2022-11-05T06:01:18.628Z,98174.02
2022-11-05T06:03:51.474Z,98179.04
2022-11-05T06:06:23.570Z,98174.95
2022-11-05T06:08:56.073Z,98182.16
2022-11-05T06:11:28.646Z,98180.00
2022-11-05T06:14:00.465Z,98183.09
2022-11-05T06:16:36.273Z,98189.77
2022-11-05T06:19:08.489Z,98200.16
2022-11-05T06:21:40.209Z,98199.03
2022-11-05T06:24:13.246Z,98208.06
2022-11-05T06:26:45.410Z,98212.50
2022-11-05T06:29:17.066Z,98222.68
2022-11-05T06:31:48.720Z,98232.35
2022-11-05T06:34:20.465Z,98235.90
2022-11-05T06:36:52.185Z,98247.98
2022-11-05T06:39:24.116Z,98243.92
2022-11-05T06:44:47.753Z,98250.73
2022-11-05T06:47:20.174Z,98258.98
2022-11-05T06:49:51.782Z,98269.50
2022-11-05T06:52:23.789Z,98276.23
2022-11-05T06:54:55.449Z,98290.86
2022-11-05T06:57:27.173Z,98292.17
2022-11-05T07:00:01.484Z,98292.73
2022-11-05T07:02:35.133Z,98290.63
2022-11-05T07:05:07.313Z,98295.98
2022-11-05T07:07:39.080Z,98305.25
2022-11-05T07:10:15.853Z,98299.94
2022-11-05T07:12:47.538Z,98304.95
2022-11-05T07:15:19.468Z,98311.79
2022-11-05T07:17:51.137Z,98318.90
2022-11-05T07:20:22.995Z,98319.27
2022-11-05T07:23:02.198Z,98321.33
2022-11-05T07:25:35.699Z,98322.69
2022-11-05T07:28:08.402Z,98325.09
2022-11-05T07:30:42.305Z,98332.93
2022-11-05T07:33:12.848Z,98335.02
2022-11-05T07:35:44.929Z,98336.66
2022-11-05T07:38:17.167Z,98342.17
2022-11-05T07:40:48.918Z,98338.63
2022-11-05T07:43:20.523Z,98340.64
2022-11-05T07:45:52.175Z,98342.88
2022-11-05T07:48:24.000Z,98344.13
2022-11-05T07:50:56.077Z,98344.85
2022-11-05T07:53:27.822Z,98345.29
2022-11-05T07:56:00.816Z,98349.67
2022-11-05T07:58:33.364Z,98351.04
2022-11-05T08:01:07.159Z,98349.50
2022-11-05T08:03:39.186Z,98350.38
2022-11-05T08:06:11.273Z,98349.61
2022-11-05T08:08:42.849Z,98351.80
2022-11-05T08:11:14.898Z,98357.12
2022-11-05T08:13:46.730Z,98355.06
2022-11-05T08:16:18.364Z,98351.86
2022-11-05T08:18:50.114Z,98352.71
2022-11-05T08:21:21.810Z,98347.05
2022-11-05T08:23:53.481Z,98346.60
2022-11-05T08:26:25.166Z,98350.73
2022-11-05T08:28:56.821Z,98348.79
2022-11-05T08:31:29.358Z,98352.08
2022-11-05T08:34:02.677Z,98358.86
2022-11-05T08:36:35.521Z,98363.05
2022-11-05T08:39:07.329Z,98368.67
2022-11-05T08:41:40.448Z,98376.12
2022-11-05T08:44:12.338Z,98379.91
2022-11-05T08:46:43.971Z,98383.42
2022-11-05T08:49:15.769Z,98387.34
2022-11-05T08:51:48.008Z,98387.41
2022-11-05T08:54:19.745Z,98389.87
2022-11-05T08:56:51.536Z,98390.73
2022-11-05T08:59:23.161Z,98397.41
2022-11-05T09:01:54.827Z,98400.70
2022-11-05T09:04:26.534Z,98402.63
2022-11-05T09:06:58.228Z,98408.43
2022-11-05T09:09:29.902Z,98409.30
2022-11-05T09:12:17.151Z,98405.17
2022-11-05T09:14:49.142Z,98406.80
2022-11-05T09:17:22.818Z,98406.54
2022-11-05T09:19:54.457Z,98405.19
2022-11-05T09:22:26.532Z,98405.33
2022-11-05T09:24:58.213Z,98404.27
2022-11-05T09:27:29.851Z,98406.90
2022-11-05T09:30:01.638Z,98406.67
2022-11-05T09:32:34.726Z,98409.27
2022-11-05T09:35:07.573Z,98410.17
2022-11-05T09:37:40.117Z,98414.50
2022-11-05T09:40:18.666Z,98414.23
2022-11-05T09:42:52.909Z,98418.52
2022-11-05T09:45:28.143Z,98422.38
2022-11-05T09:48:04.269Z,98421.54
2022-11-05T09:50:40.556Z,98427.20
2022-11-05T09:53:18.271Z,98428.58
2022-11-05T09:55:52.861Z,98427.65
2022-11-05T09:58:40.948Z,98427.25
2022-11-05T10:01:18.440Z,98427.98
2022-11-05T10:03:56.831Z,98434.27
2022-11-05T10:06:29.853Z,98434.64
2022-11-05T10:09:08.350Z,98439.60
2022-11-05T10:11:48.035Z,98442.63
2022-11-05T10:14:25.569Z,98446.16
2022-11-05T10:17:01.898Z,98443.50
2022-11-05T10:19:47.944Z,98447.73
2022-11-05T10:22:21.616Z,98445.96
2022-11-05T10:24:54.567Z,98442.20
2022-11-05T10:27:30.233Z,98441.35
2022-11-05T10:30:03.199Z,98442.98
2022-11-05T10:32:39.749Z,98451.89
2022-11-05T10:35:18.629Z,98458.20
2022-11-05T10:37:53.541Z,98461.48
2022-11-05T10:40:37.116Z,98462.92
2022-11-05T10:43:15.786Z,98460.84
2022-11-05T10:45:57.638Z,98462.13
2022-11-05T10:48:46.782Z,98459.67
2022-11-05T10:51:19.736Z,98459.47
2022-11-05T10:54:01.916Z,98464.20
2022-11-05T10:56:38.325Z,98461.41
2022-11-05T10:59:27.017Z,98463.20
2022-11-05T11:02:05.618Z,98456.12
2022-11-05T11:04:38.196Z,98460.21
2022-11-05T11:07:24.354Z,98468.63
2022-11-05T11:09:56.778Z,98476.88
2022-11-05T11:12:36.848Z,98480.73
2022-11-05T11:15:24.116Z,98480.73
2022-11-05T11:17:54.304Z,98479.34
2022-11-05T11:20:29.872Z,98479.94
2022-11-05T11:23:12.212Z,98474.29
2022-11-05T11:25:51.597Z,98472.95
2022-11-05T11:28:26.877Z,98473.39
2022-11-05T11:31:07.762Z,98481.91
2022-11-05T11:33:41.394Z,98483.64
2022-11-05T11:36:17.426Z,98484.50
2022-11-05T11:38:49.193Z,98491.05
2022-11-05T11:41:27.704Z,98496.20
2022-11-05T11:44:05.984Z,98499.01
2022-11-05T11:46:38.429Z,98500.37
2022-11-05T11:49:34.422Z,98495.41
2022-11-05T11:52:15.019Z,98493.78
2022-11-05T11:54:47.066Z,98497.38
2022-11-05T11:57:26.085Z,98497.98
2022-11-05T12:00:09.163Z,98499.84
2022-11-05T12:03:02.313Z,98497.66
2022-11-05T12:05:45.041Z,98497.26
2022-11-05T12:08:33.050Z,98501.15
2022-11-05T12:11:13.680Z,98503.05
2022-11-05T12:14:09.866Z,98497.56
2022-11-05T12:17:05.044Z,98504.91
2022-11-05T12:19:57.418Z,98519.82
2022-11-05T12:22:44.726Z,98522.81
2022-11-05T12:25:29.252Z,98522.55
2022-11-05T12:28:24.240Z,98526.28
2022-11-05T12:31:03.213Z,98526.23
2022-11-05T12:33:47.212Z,98529.01
2022-11-05T12:36:31.514Z,98530.30
2022-11-05T12:39:14.873Z,98534.88
2022-11-05T12:41:55.169Z,98534.13
2022-11-05T12:44:39.868Z,98532.87
2022-11-05T12:47:25.644Z,98536.10
2022-11-05T12:50:12.609Z,98542.36
2022-11-05T12:53:05.931Z,98542.40
2022-11-05T12:55:47.073Z,98545.33
2022-11-05T12:58:25.104Z,98547.98
2022-11-05T13:01:02.440Z,98549.86
2022-11-05T13:03:42.361Z,98545.96
2022-11-05T13:06:17.173Z,98550.33
2022-11-05T13:08:56.306Z,98555.63
2022-11-05T13:11:35.094Z,98555.02
2022-11-05T13:14:14.458Z,98558.13
2022-11-05T13:16:50.399Z,98561.75
2022-11-05T13:19:26.227Z,98563.61
2022-11-05T13:22:07.981Z,98567.33
2022-11-05T13:24:47.400Z,98582.92
2022-11-05T13:27:40.651Z,98588.69
2022-11-05T13:30:16.609Z,98589.98
2022-11-05T13:32:54.868Z,98589.33
2022-11-05T13:35:32.107Z,98594.77
2022-11-05T13:38:27.502Z,98604.46
2022-11-05T13:41:15.385Z,98610.66
2022-11-05T13:44:02.408Z,98609.02
2022-11-05T13:46:52.806Z,98608.11
2022-11-05T13:49:53.073Z,98608.51
2022-11-05T13:52:57.510Z,98611.27
2022-11-05T13:56:01.855Z,98612.33
2022-11-05T13:58:49.974Z,98610.39
2022-11-05T14:01:37.054Z,98607.99
2022-11-05T14:04:15.583Z,98612.59
2022-11-05T14:06:47.710Z,98617.54
2022-11-05T14:09:25.730Z,98613.08
2022-11-05T14:12:00.278Z,98613.67
2022-11-05T14:14:44.209Z,98618.26
2022-11-05T14:17:27.794Z,98623.98
2022-11-05T14:20:30.700Z,98628.44
2022-11-05T14:23:30.926Z,98642.93
2022-11-05T14:26:17.379Z,98653.08
2022-11-05T14:29:07.197Z,98659.23
2022-11-05T14:32:08.877Z,98668.08
2022-11-05T14:34:48.986Z,98676.13
2022-11-05T14:37:33.549Z,98682.67
2022-11-05T14:40:31.893Z,98681.37
2022-11-05T14:43:07.070Z,98681.38
2022-11-05T14:45:42.164Z,98685.02
2022-11-05T14:48:32.830Z,98686.85
2022-11-05T14:51:17.964Z,98686.91
2022-11-05T14:53:50.309Z,98688.88
2022-11-05T14:56:22.233Z,98697.75
2022-11-05T14:59:33.324Z,98701.27
2022-11-05T15:02:12.803Z,98699.93
2022-11-05T15:04:45.753Z,98701.09
2022-11-05T15:07:37.408Z,98702.84
2022-11-05T15:10:16.917Z,98710.25
2022-11-05T15:12:53.118Z,98711.96
2022-11-05T15:15:28.749Z,98715.92
2022-11-05T15:18:05.595Z,98723.20
2022-11-05T15:20:42.624Z,98725.99
2022-11-05T15:23:17.970Z,98729.55
2022-11-05T15:26:02.490Z,98726.70
2022-11-05T15:28:38.362Z,98733.81
2022-11-05T15:31:27.186Z,98735.17
2022-11-05T15:34:18.964Z,98738.09
2022-11-05T15:36:57.241Z,98739.48
2022-11-05T15:39:40.491Z,98746.77
2022-11-05T15:42:17.817Z,98750.03
2022-11-05T15:44:51.596Z,98752.15
2022-11-05T15:47:25.707Z,98756.04
2022-11-05T15:49:59.826Z,98760.33
2022-11-05T15:52:37.160Z,98761.48
2022-11-05T15:55:23.660Z,98771.35
2022-11-05T15:58:00.680Z,98773.32
2022-11-05T16:00:34.546Z,98776.70
2022-11-05T16:03:13.401Z,98769.62
2022-11-05T16:05:48.341Z,98769.91
2022-11-05T16:08:22.888Z,98775.30
2022-11-05T16:10:56.842Z,98777.81
2022-11-05T16:13:36.271Z,98776.34
2022-11-05T16:16:24.799Z,98781.16
2022-11-05T16:18:56.705Z,98783.48
2022-11-05T16:21:28.406Z,98782.77
2022-11-05T16:24:01.786Z,98783.92
2022-11-05T16:27:01.686Z,98780.86
2022-11-05T16:29:32.480Z,98790.30
2022-11-05T16:32:04.479Z,98792.15
2022-11-05T16:34:40.088Z,98793.55
2022-11-05T16:37:15.633Z,98792.89
2022-11-05T16:39:47.978Z,98789.98
2022-11-05T16:42:41.402Z,98796.86
2022-11-05T16:45:16.613Z,98807.16
2022-11-05T16:47:49.128Z,98814.76
2022-11-05T16:50:24.455Z,98820.46
2022-11-05T16:52:56.696Z,98822.27
2022-11-05T16:55:28.711Z,98824.35
2022-11-05T16:58:00.726Z,98830.23
2022-11-05T17:00:32.509Z,98828.98
2022-11-05T17:03:04.302Z,98827.98
2022-11-05T17:05:36.081Z,98828.95
2022-11-05T17:08:09.099Z,98838.32
2022-11-05T17:10:41.773Z,98838.15
2022-11-05T17:13:16.107Z,98838.84
2022-11-05T17:15:50.953Z,98835.14
2022-11-05T17:18:22.716Z,98835.30
2022-11-05T17:20:56.500Z,98838.67
2022-11-05T17:23:29.927Z,98840.80
2022-11-05T17:26:05.433Z,98844.23
2022-11-05T17:28:37.844Z,98843.79
2022-11-05T17:31:13.479Z,98842.23
2022-11-05T17:33:45.846Z,98842.82
2022-11-05T17:36:18.498Z,98839.96
2022-11-05T17:38:50.259Z,98841.98
2022-11-05T17:41:24.002Z,98840.16
2022-11-05T17:43:56.626Z,98839.98
2022-11-05T17:46:28.323Z,98843.03
2022-11-05T17:49:00.142Z,98842.43
2022-11-05T17:51:32.873Z,98843.66
2022-11-05T17:54:05.174Z,98850.61
2022-11-05T17:56:44.493Z,98855.40
2022-11-05T17:59:16.737Z,98854.70
2022-11-05T18:01:50.821Z,98857.39
2022-11-05T18:04:22.585Z,98860.28
2022-11-05T18:06:54.300Z,98865.55
2022-11-05T18:09:26.145Z,98868.14
2022-11-05T18:11:57.970Z,98868.83
2022-11-05T18:14:29.741Z,98871.02
2022-11-05T18:17:01.630Z,98873.17
2022-11-05T18:19:33.542Z,98872.80
2022-11-05T18:22:05.270Z,98878.79
2022-11-05T18:24:44.898Z,98873.39
2022-11-05T18:27:16.596Z,98875.71
2022-11-05T18:29:48.358Z,98883.89
2022-11-05T18:32:20.046Z,98889.77
2022-11-05T18:34:51.801Z,98896.15
2022-11-05T18:37:23.486Z,98899.30
2022-11-05T18:39:55.833Z,98895.45
2022-11-05T18:42:27.626Z,98884.33
2022-11-05T18:44:59.354Z,98884.20
2022-11-05T18:47:33.180Z,98889.41
2022-11-05T18:50:03.913Z,98892.33
2022-11-05T18:52:35.557Z,98896.96
2022-11-05T18:55:09.186Z,98896.71
2022-11-05T18:57:40.971Z,98902.25
2022-11-05T19:00:15.016Z,98906.48
2022-11-05T19:02:46.889Z,98911.94
2022-11-05T19:05:33.972Z,98918.45
2022-11-05T19:08:05.991Z,98921.50
2022-11-05T19:10:40.715Z,98917.78
2022-11-05T19:13:14.247Z,98918.45
2022-11-05T19:15:46.261Z,98923.40
2022-11-05T19:18:17.948Z,98930.42
2022-11-05T19:20:49.638Z,98933.41
2022-11-05T19:23:21.480Z,98931.23
2022-11-05T19:25:53.119Z,98933.81
2022-11-05T19:28:24.770Z,98938.98
2022-11-05T19:30:56.462Z,98941.41
2022-11-05T19:33:28.513Z,98942.68
2022-11-05T19:36:00.582Z,98947.83
2022-11-05T19:38:34.686Z,98948.49
2022-11-05T19:41:08.997Z,98953.11
2022-11-05T19:43:42.110Z,98954.60
2022-11-05T19:46:16.196Z,98959.19
2022-11-05T19:48:48.760Z,98965.91
2022-11-05T19:51:22.780Z,98966.33
2022-11-05T19:53:56.109Z,98968.78
2022-11-05T19:56:29.860Z,98974.86
2022-11-05T19:59:03.974Z,98975.52
2022-11-05T20:01:37.335Z,98975.77
2022-11-05T20:04:12.030Z,98982.23
2022-11-05T20:06:43.946Z,98983.13
2022-11-05T20:09:23.483Z,98988.55
2022-11-05T20:11:57.290Z,98993.17
2022-11-05T20:14:29.784Z,98994.55
2022-11-05T20:17:01.530Z,99002.09
2022-11-05T20:19:33.773Z,99001.39
2022-11-05T20:22:05.608Z,99003.83
2022-11-05T20:24:37.494Z,99008.14
2022-11-05T20:27:09.770Z,99011.61
2022-11-05T20:29:41.933Z,99008.77
2022-11-05T20:32:14.519Z,99012.02
2022-11-05T20:34:46.553Z,99014.07
2022-11-05T20:37:18.467Z,99011.52
2022-11-05T20:39:50.158Z,99011.08
2022-11-05T20:42:21.970Z,99012.52
2022-11-05T20:44:53.813Z,99012.98
2022-11-05T20:47:25.620Z,99012.73
2022-11-05T20:49:58.961Z,99017.02
2022-11-05T20:52:30.728Z,99024.41
2022-11-05T20:55:04.462Z,99031.54
2022-11-05T20:57:34.661Z,99033.48
2022-11-05T21:00:08.702Z,99037.00
2022-11-05T21:02:41.884Z,99035.06
2022-11-05T21:05:13.817Z,99034.77
2022-11-05T21:07:45.504Z,99038.86
2022-11-05T21:10:17.097Z,99038.55
2022-11-05T21:12:48.741Z,99045.16
2022-11-05T21:15:23.153Z,99048.25
2022-11-05T21:17:54.899Z,99046.46
2022-11-05T21:20:26.702Z,99047.98
2022-11-05T21:22:58.373Z,99047.73
2022-11-05T21:25:30.060Z,99046.86
2022-11-05T21:28:01.735Z,99043.17
2022-11-05T21:30:34.006Z,99037.75
2022-11-05T21:33:06.475Z,99041.49
2022-11-05T21:35:43.816Z,99041.55
2022-11-05T21:38:17.446Z,99043.23
2022-11-05T21:40:49.606Z,99045.25
2022-11-05T21:43:21.403Z,99047.41
2022-11-05T21:45:53.000Z,99048.38
2022-11-05T21:48:24.621Z,99044.64
2022-11-05T21:51:15.017Z,99043.61
2022-11-05T21:54:04.788Z,99047.56
2022-11-05T21:56:54.137Z,99046.92
2022-11-05T21:59:44.566Z,99047.68
2022-11-05T22:02:18.077Z,99045.00
2022-11-05T22:04:51.514Z,99040.64
2022-11-05T22:07:27.259Z,99044.20
2022-11-05T22:10:00.014Z,99043.39
2022-11-05T22:12:31.912Z,99048.59
2022-11-05T22:15:03.569Z,99047.08
2022-11-05T22:17:35.381Z,99055.73
2022-11-05T22:20:08.984Z,99052.70
2022-11-05T22:22:40.717Z,99057.26
2022-11-05T22:25:13.127Z,99052.85
2022-11-05T22:27:45.041Z,99051.06
2022-11-05T22:30:17.323Z,99054.20
2022-11-05T22:32:49.014Z,99060.53
2022-11-05T22:35:20.834Z,99061.65
2022-11-05T22:37:52.550Z,99059.80
2022-11-05T22:40:24.351Z,99061.36
2022-11-05T22:42:56.345Z,99056.56
2022-11-05T22:45:28.162Z,99053.91
2022-11-05T22:48:02.612Z,99057.41
2022-11-05T22:50:38.185Z,99054.70
2022-11-05T22:53:09.986Z,99055.67
2022-11-05T22:55:43.053Z,99058.70
2022-11-05T22:58:15.845Z,99055.20
2022-11-05T23:00:47.523Z,99058.91
2022-11-05T23:03:19.402Z,99054.41
2022-11-05T23:05:59.515Z,99052.41
2022-11-05T23:08:49.908Z,99056.65
2022-11-05T23:11:39.138Z,99057.89
2022-11-05T23:14:12.970Z,99056.71
2022-11-05T23:17:00.966Z,99061.40
2022-11-05T23:19:59.091Z,99065.00
2022-11-05T23:22:50.505Z,99067.56
2022-11-05T23:25:23.970Z,99063.17
2022-11-05T23:27:57.162Z,99066.61
2022-11-05T23:30:30.072Z,99064.70
2022-11-05T23:33:01.769Z,99066.61
2022-11-05T23:35:53.502Z,99072.27
2022-11-05T23:38:38.581Z,99075.40
2022-11-05T23:41:28.909Z,99074.28
2022-11-05T23:44:18.339Z,99077.39
2022-11-05T23:47:07.540Z,99079.77
2022-11-05T23:49:39.269Z,99079.05
2022-11-05T23:52:11.088Z,99083.61
2022-11-05T23:54:43.058Z,99083.61
2022-11-05T23:57:15.730Z,99081.54
2022-11-05T23:59:47.375Z,99083.33
